sensor_id;sensor_type;location;lat;lon;timestamp;temperature;humidity
67817;DHT22;54614;47.576;7.524;2024-03-08T00:00:09;20.70;54.10
67817;DHT22;54614;47.576;7.524;2024-03-08T00:02:47;20.80;54.10
67817;DHT22;54614;47.576;7.524;2024-03-08T00:05:16;20.80;54.20
67817;DHT22;54614;47.576;7.524;2024-03-08T00:07:43;20.70;54.10
67817;DHT22;54614;47.576;7.524;2024-03-08T00:10:11;20.70;54.20
67817;DHT22;54614;47.576;7.524;2024-03-08T00:12:43;20.70;54.20
67817;DHT22;54614;47.576;7.524;2024-03-08T00:15:11;20.70;54.10
67817;DHT22;54614;47.576;7.524;2024-03-08T00:17:39;20.70;54.10
67817;DHT22;54614;47.576;7.524;2024-03-08T00:20:07;20.70;54.10
67817;DHT22;54614;47.576;7.524;2024-03-08T00:22:39;20.70;54.10
67817;DHT22;54614;47.576;7.524;2024-03-08T00:25:07;20.70;54.10
67817;DHT22;54614;47.576;7.524;2024-03-08T00:27:36;20.70;54.10
67817;DHT22;54614;47.576;7.524;2024-03-08T00:30:03;20.70;54.10
67817;DHT22;54614;47.576;7.524;2024-03-08T00:32:31;20.70;54.10
67817;DHT22;54614;47.576;7.524;2024-03-08T00:34:57;20.70;54.10
67817;DHT22;54614;47.576;7.524;2024-03-08T00:37:23;20.70;54.10
67817;DHT22;54614;47.576;7.524;2024-03-08T00:39:50;20.70;54.10
67817;DHT22;54614;47.576;7.524;2024-03-08T00:42:17;20.60;54.00
67817;DHT22;54614;47.576;7.524;2024-03-08T00:44:44;20.60;54.00
67817;DHT22;54614;47.576;7.524;2024-03-08T00:47:10;20.70;54.10
67817;DHT22;54614;47.576;7.524;2024-03-08T00:49:37;20.70;54.10
67817;DHT22;54614;47.576;7.524;2024-03-08T00:52:07;20.70;54.10
67817;DHT22;54614;47.576;7.524;2024-03-08T00:54:34;20.60;54.00
67817;DHT22;54614;47.576;7.524;2024-03-08T00:57:02;20.70;54.10
67817;DHT22;54614;47.576;7.524;2024-03-08T00:59:31;20.70;54.10
67817;DHT22;54614;47.576;7.524;2024-03-08T01:02:00;20.60;54.00
67817;DHT22;54614;47.576;7.524;2024-03-08T01:04:26;20.60;54.00
67817;DHT22;54614;47.576;7.524;2024-03-08T01:06:58;20.60;54.00
67817;DHT22;54614;47.576;7.524;2024-03-08T01:09:25;20.60;54.00
67817;DHT22;54614;47.576;7.524;2024-03-08T01:11:53;20.60;54.00
67817;DHT22;54614;47.576;7.524;2024-03-08T01:14:23;20.60;54.00
67817;DHT22;54614;47.576;7.524;2024-03-08T01:16:51;20.60;54.00
67817;DHT22;54614;47.576;7.524;2024-03-08T01:19:17;20.60;54.00
67817;DHT22;54614;47.576;7.524;2024-03-08T01:21:43;20.60;54.00
67817;DHT22;54614;47.576;7.524;2024-03-08T01:24:09;20.60;54.00
67817;DHT22;54614;47.576;7.524;2024-03-08T01:26:35;20.60;54.00
67817;DHT22;54614;47.576;7.524;2024-03-08T01:29:01;20.60;54.00
67817;DHT22;54614;47.576;7.524;2024-03-08T01:31:31;20.60;53.90
67817;DHT22;54614;47.576;7.524;2024-03-08T01:33:57;20.60;54.00
67817;DHT22;54614;47.576;7.524;2024-03-08T01:36:24;20.60;54.00
67817;DHT22;54614;47.576;7.524;2024-03-08T01:38:50;20.60;54.00
67817;DHT22;54614;47.576;7.524;2024-03-08T01:41:17;20.60;54.00
67817;DHT22;54614;47.576;7.524;2024-03-08T01:43:43;20.60;54.00
67817;DHT22;54614;47.576;7.524;2024-03-08T01:46:12;20.50;53.90
67817;DHT22;54614;47.576;7.524;2024-03-08T01:48:42;20.60;54.00
67817;DHT22;54614;47.576;7.524;2024-03-08T01:51:09;20.60;54.00
67817;DHT22;54614;47.576;7.524;2024-03-08T01:53:37;20.60;54.00
67817;DHT22;54614;47.576;7.524;2024-03-08T01:56:04;20.60;54.00
67817;DHT22;54614;47.576;7.524;2024-03-08T01:58:31;20.50;53.90
67817;DHT22;54614;47.576;7.524;2024-03-08T02:00:58;20.60;54.10
67817;DHT22;54614;47.576;7.524;2024-03-08T02:03:25;20.50;54.00
67817;DHT22;54614;47.576;7.524;2024-03-08T02:05:51;20.50;53.90
67817;DHT22;54614;47.576;7.524;2024-03-08T02:08:20;20.50;53.90
67817;DHT22;54614;47.576;7.524;2024-03-08T02:10:48;20.50;53.90
67817;DHT22;54614;47.576;7.524;2024-03-08T02:13:14;20.50;54.00
67817;DHT22;54614;47.576;7.524;2024-03-08T02:16:10;20.50;53.90
67817;DHT22;54614;47.576;7.524;2024-03-08T02:18:36;20.50;54.00
67817;DHT22;54614;47.576;7.524;2024-03-08T02:21:03;20.50;54.00
67817;DHT22;54614;47.576;7.524;2024-03-08T02:23:30;20.50;53.90
67817;DHT22;54614;47.576;7.524;2024-03-08T02:25:57;20.50;53.90
67817;DHT22;54614;47.576;7.524;2024-03-08T02:28:23;20.50;53.90
67817;DHT22;54614;47.576;7.524;2024-03-08T02:30:53;20.50;54.00
67817;DHT22;54614;47.576;7.524;2024-03-08T02:33:21;20.50;53.90
67817;DHT22;54614;47.576;7.524;2024-03-08T02:35:48;20.50;54.00
67817;DHT22;54614;47.576;7.524;2024-03-08T02:38:17;20.50;54.00
67817;DHT22;54614;47.576;7.524;2024-03-08T02:40:48;20.50;53.90
67817;DHT22;54614;47.576;7.524;2024-03-08T02:43:17;20.50;54.00
67817;DHT22;54614;47.576;7.524;2024-03-08T02:45:44;20.50;53.90
67817;DHT22;54614;47.576;7.524;2024-03-08T02:48:11;20.50;53.90
67817;DHT22;54614;47.576;7.524;2024-03-08T02:50:38;20.50;54.00
67817;DHT22;54614;47.576;7.524;2024-03-08T02:53:11;20.50;53.90
67817;DHT22;54614;47.576;7.524;2024-03-08T02:55:41;20.40;53.90
67817;DHT22;54614;47.576;7.524;2024-03-08T02:58:07;20.50;53.90
67817;DHT22;54614;47.576;7.524;2024-03-08T03:00:37;20.50;54.00
67817;DHT22;54614;47.576;7.524;2024-03-08T03:03:07;20.50;53.90
67817;DHT22;54614;47.576;7.524;2024-03-08T03:05:33;20.40;53.90
67817;DHT22;54614;47.576;7.524;2024-03-08T03:07:59;20.40;53.90
67817;DHT22;54614;47.576;7.524;2024-03-08T03:10:25;20.50;53.90
67817;DHT22;54614;47.576;7.524;2024-03-08T03:12:51;20.40;53.90
67817;DHT22;54614;47.576;7.524;2024-03-08T03:15:17;20.40;53.90
67817;DHT22;54614;47.576;7.524;2024-03-08T03:17:48;20.40;53.90
67817;DHT22;54614;47.576;7.524;2024-03-08T03:20:18;20.40;53.90
67817;DHT22;54614;47.576;7.524;2024-03-08T03:22:51;20.40;53.90
67817;DHT22;54614;47.576;7.524;2024-03-08T03:25:21;20.40;53.90
67817;DHT22;54614;47.576;7.524;2024-03-08T03:27:58;20.40;54.00
67817;DHT22;54614;47.576;7.524;2024-03-08T03:30:25;20.40;53.90
67817;DHT22;54614;47.576;7.524;2024-03-08T03:32:59;20.40;53.80
67817;DHT22;54614;47.576;7.524;2024-03-08T03:35:32;20.40;53.80
67817;DHT22;54614;47.576;7.524;2024-03-08T03:37:59;20.40;53.90
67817;DHT22;54614;47.576;7.524;2024-03-08T03:40:43;20.40;53.90
67817;DHT22;54614;47.576;7.524;2024-03-08T03:43:10;20.40;53.90
67817;DHT22;54614;47.576;7.524;2024-03-08T03:45:36;20.40;53.90
67817;DHT22;54614;47.576;7.524;2024-03-08T03:48:03;20.30;53.80
67817;DHT22;54614;47.576;7.524;2024-03-08T03:50:31;20.40;53.90
67817;DHT22;54614;47.576;7.524;2024-03-08T03:53:01;20.40;53.90
67817;DHT22;54614;47.576;7.524;2024-03-08T03:55:28;20.40;53.90
67817;DHT22;54614;47.576;7.524;2024-03-08T03:57:54;20.30;53.80
67817;DHT22;54614;47.576;7.524;2024-03-08T04:00:20;20.40;53.90
67817;DHT22;54614;47.576;7.524;2024-03-08T04:02:46;20.40;54.50
67817;DHT22;54614;47.576;7.524;2024-03-08T04:05:12;20.30;53.80
67817;DHT22;54614;47.576;7.524;2024-03-08T04:07:39;20.30;53.80
67817;DHT22;54614;47.576;7.524;2024-03-08T04:10:06;20.30;53.80
67817;DHT22;54614;47.576;7.524;2024-03-08T04:12:33;20.40;53.80
67817;DHT22;54614;47.576;7.524;2024-03-08T04:15:00;20.30;53.90
67817;DHT22;54614;47.576;7.524;2024-03-08T04:17:26;20.30;53.80
67817;DHT22;54614;47.576;7.524;2024-03-08T04:19:52;20.30;53.80
67817;DHT22;54614;47.576;7.524;2024-03-08T04:22:19;20.30;53.70
67817;DHT22;54614;47.576;7.524;2024-03-08T04:24:45;20.30;53.90
67817;DHT22;54614;47.576;7.524;2024-03-08T04:27:13;20.30;53.80
67817;DHT22;54614;47.576;7.524;2024-03-08T04:29:39;20.30;53.80
67817;DHT22;54614;47.576;7.524;2024-03-08T04:32:06;20.30;53.80
67817;DHT22;54614;47.576;7.524;2024-03-08T04:34:34;20.30;54.10
67817;DHT22;54614;47.576;7.524;2024-03-08T04:37:03;20.30;53.80
67817;DHT22;54614;47.576;7.524;2024-03-08T04:39:30;20.40;53.80
67817;DHT22;54614;47.576;7.524;2024-03-08T04:42:02;20.40;53.70
67817;DHT22;54614;47.576;7.524;2024-03-08T04:44:30;20.30;53.70
67817;DHT22;54614;47.576;7.524;2024-03-08T04:46:57;20.30;53.80
67817;DHT22;54614;47.576;7.524;2024-03-08T04:49:23;20.30;53.80
67817;DHT22;54614;47.576;7.524;2024-03-08T04:51:49;20.20;53.80
67817;DHT22;54614;47.576;7.524;2024-03-08T04:54:14;20.30;53.80
67817;DHT22;54614;47.576;7.524;2024-03-08T04:56:40;20.30;53.80
67817;DHT22;54614;47.576;7.524;2024-03-08T04:59:06;20.30;53.80
67817;DHT22;54614;47.576;7.524;2024-03-08T05:01:34;20.30;54.00
67817;DHT22;54614;47.576;7.524;2024-03-08T05:04:03;20.30;53.80
67817;DHT22;54614;47.576;7.524;2024-03-08T05:06:29;20.20;53.80
67817;DHT22;54614;47.576;7.524;2024-03-08T05:08:56;20.30;53.90
67817;DHT22;54614;47.576;7.524;2024-03-08T05:11:21;20.30;53.90
67817;DHT22;54614;47.576;7.524;2024-03-08T05:13:47;20.30;53.90
67817;DHT22;54614;47.576;7.524;2024-03-08T05:16:13;20.30;54.00
67817;DHT22;54614;47.576;7.524;2024-03-08T05:18:41;20.30;54.00
67817;DHT22;54614;47.576;7.524;2024-03-08T05:21:07;20.20;53.90
67817;DHT22;54614;47.576;7.524;2024-03-08T05:23:34;20.30;53.80
67817;DHT22;54614;47.576;7.524;2024-03-08T05:26:00;20.20;53.40
67817;DHT22;54614;47.576;7.524;2024-03-08T05:28:26;20.20;52.90
67817;DHT22;54614;47.576;7.524;2024-03-08T05:30:52;20.20;52.90
67817;DHT22;54614;47.576;7.524;2024-03-08T05:33:18;20.20;53.00
67817;DHT22;54614;47.576;7.524;2024-03-08T05:35:45;20.20;53.20
67817;DHT22;54614;47.576;7.524;2024-03-08T05:38:10;20.20;53.10
67817;DHT22;54614;47.576;7.524;2024-03-08T05:40:38;20.10;53.30
67817;DHT22;54614;47.576;7.524;2024-03-08T05:43:04;20.10;53.20
67817;DHT22;54614;47.576;7.524;2024-03-08T05:45:30;20.10;53.20
67817;DHT22;54614;47.576;7.524;2024-03-08T05:47:56;20.10;53.20
67817;DHT22;54614;47.576;7.524;2024-03-08T05:50:22;20.10;53.30
67817;DHT22;54614;47.576;7.524;2024-03-08T05:52:48;20.10;53.30
67817;DHT22;54614;47.576;7.524;2024-03-08T05:55:15;20.20;53.60
67817;DHT22;54614;47.576;7.524;2024-03-08T05:57:41;20.20;53.70
67817;DHT22;54614;47.576;7.524;2024-03-08T06:00:08;20.20;53.80
67817;DHT22;54614;47.576;7.524;2024-03-08T06:02:38;20.20;53.90
67817;DHT22;54614;47.576;7.524;2024-03-08T06:05:11;20.20;53.90
67817;DHT22;54614;47.576;7.524;2024-03-08T06:07:37;20.20;53.90
67817;DHT22;54614;47.576;7.524;2024-03-08T06:10:10;20.20;53.90
67817;DHT22;54614;47.576;7.524;2024-03-08T06:12:40;20.20;53.90
67817;DHT22;54614;47.576;7.524;2024-03-08T06:15:09;20.20;53.90
67817;DHT22;54614;47.576;7.524;2024-03-08T06:17:38;20.20;54.00
67817;DHT22;54614;47.576;7.524;2024-03-08T06:20:04;20.20;53.90
67817;DHT22;54614;47.576;7.524;2024-03-08T06:22:42;20.20;53.90
67817;DHT22;54614;47.576;7.524;2024-03-08T06:25:08;20.20;53.90
67817;DHT22;54614;47.576;7.524;2024-03-08T06:27:36;20.20;53.90
67817;DHT22;54614;47.576;7.524;2024-03-08T06:30:02;20.20;53.90
67817;DHT22;54614;47.576;7.524;2024-03-08T06:32:30;20.20;54.00
67817;DHT22;54614;47.576;7.524;2024-03-08T06:34:56;20.20;53.90
67817;DHT22;54614;47.576;7.524;2024-03-08T06:37:22;20.20;54.00
67817;DHT22;54614;47.576;7.524;2024-03-08T06:39:49;20.20;53.90
67817;DHT22;54614;47.576;7.524;2024-03-08T06:42:16;20.20;53.40
67817;DHT22;54614;47.576;7.524;2024-03-08T06:44:42;20.10;54.40
67817;DHT22;54614;47.576;7.524;2024-03-08T06:47:15;20.20;55.80
67817;DHT22;54614;47.576;7.524;2024-03-08T06:49:44;20.30;56.20
67817;DHT22;54614;47.576;7.524;2024-03-08T06:52:10;20.30;56.90
67817;DHT22;54614;47.576;7.524;2024-03-08T06:54:37;20.30;58.80
67817;DHT22;54614;47.576;7.524;2024-03-08T06:57:06;20.60;67.50
67817;DHT22;54614;47.576;7.524;2024-03-08T06:59:32;20.90;63.60
67817;DHT22;54614;47.576;7.524;2024-03-08T07:01:58;21.00;57.70
67817;DHT22;54614;47.576;7.524;2024-03-08T07:04:26;20.80;56.50
67817;DHT22;54614;47.576;7.524;2024-03-08T07:06:55;20.50;56.30
67817;DHT22;54614;47.576;7.524;2024-03-08T07:09:23;20.50;55.80
67817;DHT22;54614;47.576;7.524;2024-03-08T07:11:50;20.40;55.50
67817;DHT22;54614;47.576;7.524;2024-03-08T07:14:23;20.40;55.40
67817;DHT22;54614;47.576;7.524;2024-03-08T07:16:50;20.30;55.40
67817;DHT22;54614;47.576;7.524;2024-03-08T07:19:17;20.40;55.70
67817;DHT22;54614;47.576;7.524;2024-03-08T07:21:45;20.40;55.60
67817;DHT22;54614;47.576;7.524;2024-03-08T07:24:13;20.30;55.60
67817;DHT22;54614;47.576;7.524;2024-03-08T07:26:45;20.30;55.30
67817;DHT22;54614;47.576;7.524;2024-03-08T07:29:15;20.40;55.80
67817;DHT22;54614;47.576;7.524;2024-03-08T07:31:41;20.50;56.20
67817;DHT22;54614;47.576;7.524;2024-03-08T07:34:07;20.50;56.20
67817;DHT22;54614;47.576;7.524;2024-03-08T07:36:34;20.50;56.00
67817;DHT22;54614;47.576;7.524;2024-03-08T07:39:03;20.50;56.20
67817;DHT22;54614;47.576;7.524;2024-03-08T07:41:31;20.60;56.50
67817;DHT22;54614;47.576;7.524;2024-03-08T07:43:56;20.50;56.40
67817;DHT22;54614;47.576;7.524;2024-03-08T07:46:22;20.50;56.30
67817;DHT22;54614;47.576;7.524;2024-03-08T07:48:48;20.50;56.30
67817;DHT22;54614;47.576;7.524;2024-03-08T07:51:16;20.50;56.00
67817;DHT22;54614;47.576;7.524;2024-03-08T07:53:43;20.50;56.20
67817;DHT22;54614;47.576;7.524;2024-03-08T07:56:09;20.50;56.00
67817;DHT22;54614;47.576;7.524;2024-03-08T07:58:38;20.60;56.00
67817;DHT22;54614;47.576;7.524;2024-03-08T08:01:06;20.60;56.10
67817;DHT22;54614;47.576;7.524;2024-03-08T08:03:32;20.50;56.10
67817;DHT22;54614;47.576;7.524;2024-03-08T08:05:58;20.50;56.10
67817;DHT22;54614;47.576;7.524;2024-03-08T08:08:23;20.60;56.20
67817;DHT22;54614;47.576;7.524;2024-03-08T08:10:51;20.60;56.10
67817;DHT22;54614;47.576;7.524;2024-03-08T08:13:17;20.50;56.20
67817;DHT22;54614;47.576;7.524;2024-03-08T08:15:43;20.60;56.10
67817;DHT22;54614;47.576;7.524;2024-03-08T08:18:09;20.60;56.00
67817;DHT22;54614;47.576;7.524;2024-03-08T08:20:35;20.60;55.80
67817;DHT22;54614;47.576;7.524;2024-03-08T08:23:01;20.50;55.90
67817;DHT22;54614;47.576;7.524;2024-03-08T08:25:27;20.60;56.00
67817;DHT22;54614;47.576;7.524;2024-03-08T08:27:52;20.60;55.90
67817;DHT22;54614;47.576;7.524;2024-03-08T08:30:19;20.60;55.90
67817;DHT22;54614;47.576;7.524;2024-03-08T08:32:46;20.60;55.80
67817;DHT22;54614;47.576;7.524;2024-03-08T08:35:12;20.60;56.10
67817;DHT22;54614;47.576;7.524;2024-03-08T08:37:41;20.60;55.80
67817;DHT22;54614;47.576;7.524;2024-03-08T08:40:08;20.50;55.80
67817;DHT22;54614;47.576;7.524;2024-03-08T08:42:40;20.60;55.70
67817;DHT22;54614;47.576;7.524;2024-03-08T08:45:07;20.60;55.90
67817;DHT22;54614;47.576;7.524;2024-03-08T08:47:35;20.60;55.80
67817;DHT22;54614;47.576;7.524;2024-03-08T08:50:01;20.50;55.50
67817;DHT22;54614;47.576;7.524;2024-03-08T08:52:29;20.60;55.70
67817;DHT22;54614;47.576;7.524;2024-03-08T08:54:55;20.60;55.60
67817;DHT22;54614;47.576;7.524;2024-03-08T08:57:22;20.60;55.60
67817;DHT22;54614;47.576;7.524;2024-03-08T08:59:47;20.50;55.60
67817;DHT22;54614;47.576;7.524;2024-03-08T09:02:13;20.60;55.60
67817;DHT22;54614;47.576;7.524;2024-03-08T09:04:39;20.60;55.70
67817;DHT22;54614;47.576;7.524;2024-03-08T09:07:05;20.60;55.60
67817;DHT22;54614;47.576;7.524;2024-03-08T09:09:34;20.60;55.70
67817;DHT22;54614;47.576;7.524;2024-03-08T09:12:00;20.50;55.50
67817;DHT22;54614;47.576;7.524;2024-03-08T09:14:26;20.60;55.30
67817;DHT22;54614;47.576;7.524;2024-03-08T09:16:52;20.60;55.20
67817;DHT22;54614;47.576;7.524;2024-03-08T09:19:18;20.60;55.20
67817;DHT22;54614;47.576;7.524;2024-03-08T09:21:45;20.60;55.30
67817;DHT22;54614;47.576;7.524;2024-03-08T09:24:11;20.60;55.60
67817;DHT22;54614;47.576;7.524;2024-03-08T09:26:37;20.60;55.60
67817;DHT22;54614;47.576;7.524;2024-03-08T09:29:06;20.60;55.30
67817;DHT22;54614;47.576;7.524;2024-03-08T09:31:32;20.60;55.50
67817;DHT22;54614;47.576;7.524;2024-03-08T09:33:58;20.60;55.50
67817;DHT22;54614;47.576;7.524;2024-03-08T09:36:24;20.60;55.40
67817;DHT22;54614;47.576;7.524;2024-03-08T09:38:50;20.60;55.10
67817;DHT22;54614;47.576;7.524;2024-03-08T09:41:16;20.60;55.70
67817;DHT22;54614;47.576;7.524;2024-03-08T09:43:43;20.50;55.00
67817;DHT22;54614;47.576;7.524;2024-03-08T09:46:11;20.50;55.20
67817;DHT22;54614;47.576;7.524;2024-03-08T09:48:39;20.50;55.40
67817;DHT22;54614;47.576;7.524;2024-03-08T09:51:07;20.50;55.40
67817;DHT22;54614;47.576;7.524;2024-03-08T09:53:33;20.60;55.30
67817;DHT22;54614;47.576;7.524;2024-03-08T09:56:00;20.70;55.30
67817;DHT22;54614;47.576;7.524;2024-03-08T09:58:29;20.70;55.30
67817;DHT22;54614;47.576;7.524;2024-03-08T10:01:00;20.80;55.40
67817;DHT22;54614;47.576;7.524;2024-03-08T10:03:32;20.80;55.40
67817;DHT22;54614;47.576;7.524;2024-03-08T10:05:59;20.80;55.30
67817;DHT22;54614;47.576;7.524;2024-03-08T10:08:28;20.90;55.10
67817;DHT22;54614;47.576;7.524;2024-03-08T10:10:58;20.90;54.80
67817;DHT22;54614;47.576;7.524;2024-03-08T10:13:25;21.00;54.70
67817;DHT22;54614;47.576;7.524;2024-03-08T10:15:54;21.00;54.70
67817;DHT22;54614;47.576;7.524;2024-03-08T10:18:21;21.00;54.70
67817;DHT22;54614;47.576;7.524;2024-03-08T10:21:05;21.10;54.80
67817;DHT22;54614;47.576;7.524;2024-03-08T10:23:34;21.10;54.70
67817;DHT22;54614;47.576;7.524;2024-03-08T10:26:20;21.10;54.60
67817;DHT22;54614;47.576;7.524;2024-03-08T10:28:51;21.10;54.60
67817;DHT22;54614;47.576;7.524;2024-03-08T10:31:19;21.20;54.50
67817;DHT22;54614;47.576;7.524;2024-03-08T10:33:48;21.30;54.40
67817;DHT22;54614;47.576;7.524;2024-03-08T10:36:15;21.30;54.20
67817;DHT22;54614;47.576;7.524;2024-03-08T10:38:43;21.30;54.10
67817;DHT22;54614;47.576;7.524;2024-03-08T10:41:12;21.40;54.00
67817;DHT22;54614;47.576;7.524;2024-03-08T10:49:30;21.50;54.10
67817;DHT22;54614;47.576;7.524;2024-03-08T10:52:04;21.50;54.10
67817;DHT22;54614;47.576;7.524;2024-03-08T10:54:38;21.50;54.00
67817;DHT22;54614;47.576;7.524;2024-03-08T10:57:05;21.50;54.10
67817;DHT22;54614;47.576;7.524;2024-03-08T10:59:34;21.60;54.10
67817;DHT22;54614;47.576;7.524;2024-03-08T11:02:01;21.60;53.80
67817;DHT22;54614;47.576;7.524;2024-03-08T11:04:27;21.60;53.80
67817;DHT22;54614;47.576;7.524;2024-03-08T11:07:01;21.60;53.80
67817;DHT22;54614;47.576;7.524;2024-03-08T11:09:36;21.70;54.00
67817;DHT22;54614;47.576;7.524;2024-03-08T11:12:24;21.70;54.00
67817;DHT22;54614;47.576;7.524;2024-03-08T11:14:52;21.70;54.00
67817;DHT22;54614;47.576;7.524;2024-03-08T11:19:55;21.80;54.10
67817;DHT22;54614;47.576;7.524;2024-03-08T11:22:29;21.80;54.20
67817;DHT22;54614;47.576;7.524;2024-03-08T11:25:09;21.80;54.10
67817;DHT22;54614;47.576;7.524;2024-03-08T11:27:38;21.80;53.90
67817;DHT22;54614;47.576;7.524;2024-03-08T11:30:06;21.90;53.90
67817;DHT22;54614;47.576;7.524;2024-03-08T11:32:37;21.80;53.80
67817;DHT22;54614;47.576;7.524;2024-03-08T11:35:21;21.80;54.00
67817;DHT22;54614;47.576;7.524;2024-03-08T11:37:50;21.90;54.10
67817;DHT22;54614;47.576;7.524;2024-03-08T11:40:16;21.90;54.00
67817;DHT22;54614;47.576;7.524;2024-03-08T11:42:45;21.90;54.00
67817;DHT22;54614;47.576;7.524;2024-03-08T11:45:13;21.90;54.00
67817;DHT22;54614;47.576;7.524;2024-03-08T11:47:43;21.90;54.10
67817;DHT22;54614;47.576;7.524;2024-03-08T11:50:13;21.90;54.10
67817;DHT22;54614;47.576;7.524;2024-03-08T11:52:40;22.00;54.00
67817;DHT22;54614;47.576;7.524;2024-03-08T11:55:06;22.00;53.90
67817;DHT22;54614;47.576;7.524;2024-03-08T11:57:33;22.00;54.40
67817;DHT22;54614;47.576;7.524;2024-03-08T11:59:59;22.00;53.80
67817;DHT22;54614;47.576;7.524;2024-03-08T12:02:33;22.00;53.80
67817;DHT22;54614;47.576;7.524;2024-03-08T12:05:04;22.00;53.90
67817;DHT22;54614;47.576;7.524;2024-03-08T12:07:35;22.00;53.90
67817;DHT22;54614;47.576;7.524;2024-03-08T12:10:18;22.00;53.90
67817;DHT22;54614;47.576;7.524;2024-03-08T12:12:48;22.10;53.90
67817;DHT22;54614;47.576;7.524;2024-03-08T12:15:17;22.10;53.90
67817;DHT22;54614;47.576;7.524;2024-03-08T12:17:45;22.10;54.50
67817;DHT22;54614;47.576;7.524;2024-03-08T12:20:21;22.10;53.80
67817;DHT22;54614;47.576;7.524;2024-03-08T12:22:49;22.10;53.70
67817;DHT22;54614;47.576;7.524;2024-03-08T12:25:18;22.10;53.70
67817;DHT22;54614;47.576;7.524;2024-03-08T12:27:46;22.20;53.70
67817;DHT22;54614;47.576;7.524;2024-03-08T12:30:25;22.10;53.70
67817;DHT22;54614;47.576;7.524;2024-03-08T12:32:56;22.10;53.80
67817;DHT22;54614;47.576;7.524;2024-03-08T12:35:27;22.10;53.90
67817;DHT22;54614;47.576;7.524;2024-03-08T12:37:58;22.00;54.00
67817;DHT22;54614;47.576;7.524;2024-03-08T12:40:32;22.00;54.20
67817;DHT22;54614;47.576;7.524;2024-03-08T12:43:00;21.90;54.40
67817;DHT22;54614;47.576;7.524;2024-03-08T12:45:28;21.90;54.40
67817;DHT22;54614;47.576;7.524;2024-03-08T12:47:54;21.90;54.50
67817;DHT22;54614;47.576;7.524;2024-03-08T12:50:22;21.90;54.60
67817;DHT22;54614;47.576;7.524;2024-03-08T12:52:50;21.90;54.50
67817;DHT22;54614;47.576;7.524;2024-03-08T12:55:18;21.90;54.50
67817;DHT22;54614;47.576;7.524;2024-03-08T12:57:44;21.80;54.60
67817;DHT22;54614;47.576;7.524;2024-03-08T13:00:11;21.80;54.60
67817;DHT22;54614;47.576;7.524;2024-03-08T13:02:47;21.90;54.60
67817;DHT22;54614;47.576;7.524;2024-03-08T13:05:15;21.90;54.70
67817;DHT22;54614;47.576;7.524;2024-03-08T13:07:41;21.80;54.70
67817;DHT22;54614;47.576;7.524;2024-03-08T13:10:15;21.80;54.70
67817;DHT22;54614;47.576;7.524;2024-03-08T13:12:42;21.80;54.70
67817;DHT22;54614;47.576;7.524;2024-03-08T13:15:09;21.80;54.70
67817;DHT22;54614;47.576;7.524;2024-03-08T13:17:41;21.90;54.70
67817;DHT22;54614;47.576;7.524;2024-03-08T13:20:08;21.90;54.70
67817;DHT22;54614;47.576;7.524;2024-03-08T13:22:35;21.80;54.60
67817;DHT22;54614;47.576;7.524;2024-03-08T13:25:02;21.90;54.70
67817;DHT22;54614;47.576;7.524;2024-03-08T13:27:28;21.80;54.70
67817;DHT22;54614;47.576;7.524;2024-03-08T13:29:54;21.80;54.70
67817;DHT22;54614;47.576;7.524;2024-03-08T13:32:20;21.90;54.80
67817;DHT22;54614;47.576;7.524;2024-03-08T13:34:47;21.80;54.70
67817;DHT22;54614;47.576;7.524;2024-03-08T13:37:13;21.80;54.80
67817;DHT22;54614;47.576;7.524;2024-03-08T13:39:41;21.80;54.80
67817;DHT22;54614;47.576;7.524;2024-03-08T13:42:12;21.80;54.80
67817;DHT22;54614;47.576;7.524;2024-03-08T13:44:48;21.80;54.80
67817;DHT22;54614;47.576;7.524;2024-03-08T13:47:18;21.80;54.70
67817;DHT22;54614;47.576;7.524;2024-03-08T13:49:44;21.80;54.80
67817;DHT22;54614;47.576;7.524;2024-03-08T13:52:10;21.80;54.80
67817;DHT22;54614;47.576;7.524;2024-03-08T13:54:38;21.80;54.80
67817;DHT22;54614;47.576;7.524;2024-03-08T13:57:04;21.70;54.90
67817;DHT22;54614;47.576;7.524;2024-03-08T13:59:31;21.70;54.90
67817;DHT22;54614;47.576;7.524;2024-03-08T14:02:01;21.70;55.00
67817;DHT22;54614;47.576;7.524;2024-03-08T14:04:31;21.60;55.10
67817;DHT22;54614;47.576;7.524;2024-03-08T14:06:56;21.60;55.20
67817;DHT22;54614;47.576;7.524;2024-03-08T14:09:26;21.60;55.20
67817;DHT22;54614;47.576;7.524;2024-03-08T14:11:55;21.60;55.70
67817;DHT22;54614;47.576;7.524;2024-03-08T14:14:21;21.60;55.00
67817;DHT22;54614;47.576;7.524;2024-03-08T14:16:51;21.60;55.00
67817;DHT22;54614;47.576;7.524;2024-03-08T14:19:19;21.60;55.10
67817;DHT22;54614;47.576;7.524;2024-03-08T14:21:45;21.60;55.20
67817;DHT22;54614;47.576;7.524;2024-03-08T14:24:16;21.50;55.20
67817;DHT22;54614;47.576;7.524;2024-03-08T14:26:42;21.50;55.30
67817;DHT22;54614;47.576;7.524;2024-03-08T14:29:08;21.50;55.30
67817;DHT22;54614;47.576;7.524;2024-03-08T14:31:38;21.50;55.30
67817;DHT22;54614;47.576;7.524;2024-03-08T14:34:04;21.50;55.40
67817;DHT22;54614;47.576;7.524;2024-03-08T14:36:30;21.50;55.40
67817;DHT22;54614;47.576;7.524;2024-03-08T14:38:56;21.50;55.30
67817;DHT22;54614;47.576;7.524;2024-03-08T14:41:22;21.50;55.20
67817;DHT22;54614;47.576;7.524;2024-03-08T14:43:48;21.50;55.30
67817;DHT22;54614;47.576;7.524;2024-03-08T14:46:14;21.50;55.30
67817;DHT22;54614;47.576;7.524;2024-03-08T14:48:55;21.50;55.40
67817;DHT22;54614;47.576;7.524;2024-03-08T14:51:22;21.40;55.40
67817;DHT22;54614;47.576;7.524;2024-03-08T14:53:53;21.40;55.40
67817;DHT22;54614;47.576;7.524;2024-03-08T14:56:20;21.40;55.50
67817;DHT22;54614;47.576;7.524;2024-03-08T14:58:46;21.40;55.40
67817;DHT22;54614;47.576;7.524;2024-03-08T15:01:15;21.40;55.40
67817;DHT22;54614;47.576;7.524;2024-03-08T15:03:44;21.40;55.40
67817;DHT22;54614;47.576;7.524;2024-03-08T15:06:10;21.40;55.30
67817;DHT22;54614;47.576;7.524;2024-03-08T15:08:38;21.40;55.30
67817;DHT22;54614;47.576;7.524;2024-03-08T15:11:07;21.40;55.30
67817;DHT22;54614;47.576;7.524;2024-03-08T15:13:34;21.40;55.40
67817;DHT22;54614;47.576;7.524;2024-03-08T15:16:05;21.40;55.40
67817;DHT22;54614;47.576;7.524;2024-03-08T15:18:33;21.40;55.50
67817;DHT22;54614;47.576;7.524;2024-03-08T15:21:00;21.40;55.50
67817;DHT22;54614;47.576;7.524;2024-03-08T15:23:26;21.40;55.60
67817;DHT22;54614;47.576;7.524;2024-03-08T15:25:52;21.40;55.50
67817;DHT22;54614;47.576;7.524;2024-03-08T15:28:18;21.40;55.50
67817;DHT22;54614;47.576;7.524;2024-03-08T15:30:49;21.40;55.50
67817;DHT22;54614;47.576;7.524;2024-03-08T15:33:20;21.40;55.30
67817;DHT22;54614;47.576;7.524;2024-03-08T15:35:51;21.40;55.10
67817;DHT22;54614;47.576;7.524;2024-03-08T15:38:24;21.40;55.20
67817;DHT22;54614;47.576;7.524;2024-03-08T15:40:53;21.40;55.40
67817;DHT22;54614;47.576;7.524;2024-03-08T15:43:20;21.40;55.40